Time;durP1;ratioP1;P1;durP2;ratioP2;P2;SDS_P1;SDS_P2;PMS_P1;PMS_P2;Temp;Humidity;BMP_temperature;BMP_pressure;BME280_temperature;BME280_humidity;BME280_pressure;Samples;Min_cycle;Max_cycle;Signal;HPM_P1;HPM_P2
2022/12/20 00:02:24;;;;;;;21.02;10.60;;;;;;;-0.35;70.49;99481.56;5088292;28;20436;-66
2022/12/20 00:04:49;;;;;;;22.88;10.55;;;;;;;-0.32;70.64;99478.47;5089380;28;20012;-67
2022/12/20 00:07:15;;;;;;;22.77;10.85;;;;;;;-0.29;71.08;99490.69;5090469;28;20028;-68
2022/12/20 00:09:40;;;;;;;25.13;10.70;;;;;;;-0.28;70.75;99491.56;5089964;28;20530;-67
2022/12/20 00:12:06;;;;;;;26.00;11.75;;;;;;;-0.26;70.39;99497.56;5090899;28;20020;-67
2022/12/20 00:14:31;;;;;;;24.40;11.43;;;;;;;-0.26;70.60;99478.69;5090339;28;20563;-66
2022/12/20 00:16:56;;;;;;;25.23;11.55;;;;;;;-0.25;71.27;99477.66;5089997;28;20035;-66
2022/12/20 00:19:22;;;;;;;23.75;10.95;;;;;;;-0.25;70.95;99481.19;5090460;28;20035;-67
2022/12/20 00:21:47;;;;;;;23.60;10.68;;;;;;;-0.25;70.94;99475.78;5089977;28;20051;-67
2022/12/20 00:24:14;;;;;;;22.70;10.43;;;;;;;-0.26;71.00;99484.91;5089801;28;20024;-66
2022/12/20 00:26:39;;;;;;;23.10;10.77;;;;;;;-0.25;70.95;99480.38;5089040;28;20032;-67
2022/12/20 00:29:05;;;;;;;24.10;10.50;;;;;;;-0.26;70.98;99470.63;5089235;28;20035;-67
2022/12/20 00:31:31;;;;;;;24.27;10.20;;;;;;;-0.27;71.04;99458.16;5070682;28;20016;-67
2022/12/20 00:33:58;;;;;;;23.40;10.82;;;;;;;-0.26;71.01;99449.03;5089613;28;20047;-65
2022/12/20 00:36:26;;;;;;;22.65;10.85;;;;;;;-0.25;71.33;99453.41;5088944;28;20020;-66
2022/12/20 00:38:53;;;;;;;26.05;12.00;;;;;;;-0.26;71.22;99449.03;5071309;28;20074;-68
2022/12/20 00:41:30;;;;;;;24.73;10.57;;;;;;;-0.24;71.40;99441.59;5088606;28;20024;-68
2022/12/20 00:43:56;;;;;;;24.50;11.63;;;;;;;-0.24;71.09;99407.34;5089155;28;20024;-67
2022/12/20 00:46:23;;;;;;;26.02;11.52;;;;;;;-0.24;71.31;99415.44;5088837;28;20110;-67
2022/12/20 00:48:50;;;;;;;25.05;11.82;;;;;;;-0.22;71.40;99458.41;5088520;28;20031;-67
2022/12/20 00:51:19;;;;;;;29.75;12.35;;;;;;;-0.21;71.45;99493.22;5052367;28;20029;-66
2022/12/20 00:53:45;;;;;;;23.20;10.02;;;;;;;-0.19;71.40;99457.97;5089856;28;20028;-68
2022/12/20 00:56:11;;;;;;;26.35;13.02;;;;;;;-0.18;71.25;99449.69;5090616;28;20028;-68
2022/12/20 00:58:39;;;;;;;28.17;11.85;;;;;;;-0.18;71.62;99457.78;5091421;28;20538;-68
2022/12/20 01:01:14;;;;;;;23.73;10.30;;;;;;;-0.17;71.35;99453.22;5086961;28;20027;-66
2022/12/20 01:03:39;;;;;;;26.27;11.45;;;;;;;-0.17;71.76;99470.22;5090177;28;20028;-67
2022/12/20 01:06:05;;;;;;;27.95;11.80;;;;;;;-0.17;71.44;99464.00;5089592;28;20031;-66
2022/12/20 01:08:31;;;;;;;25.25;11.07;;;;;;;-0.16;71.33;99468.34;5085131;28;20032;-67
2022/12/20 01:11:13;;;;;;;25.88;11.18;;;;;;;-0.18;71.77;99473.97;5087859;28;20111;-67
2022/12/20 01:13:41;;;;;;;27.40;11.40;;;;;;;-0.14;71.32;99468.16;5088179;28;20020;-67
2022/12/20 01:16:12;;;;;;;28.92;12.77;;;;;;;-0.15;71.54;99464.63;5087875;28;20046;-66
2022/12/20 01:18:37;;;;;;;;;;;;;;;-0.10;71.41;99453.25;5089518;28;20053;-66
2022/12/20 01:21:05;;;;;;;25.73;10.60;;;;;;;-0.10;71.31;99447.84;5070035;28;20326;-67
2022/12/20 01:23:31;;;;;;;23.05;12.07;;;;;;;-0.12;71.60;99452.63;5088732;28;20020;-66
2022/12/20 01:25:58;;;;;;;21.27;9.60;;;;;;;-0.12;71.27;99439.13;5069512;28;20042;-66
2022/12/20 01:28:24;;;;;;;24.05;10.35;;;;;;;-0.12;72.04;99437.25;5091728;28;20847;-67
2022/12/20 01:30:49;;;;;;;23.48;11.02;;;;;;;-0.11;71.62;99430.03;5094550;28;20047;-66
2022/12/20 01:33:15;;;;;;;22.90;10.43;;;;;;;-0.10;71.78;99434.38;5077174;28;20031;-65
2022/12/20 01:35:40;;;;;;;22.52;10.70;;;;;;;-0.11;71.79;99432.72;5093830;28;20067;-66
2022/12/20 01:38:06;;;;;;;22.63;11.35;;;;;;;-0.10;71.58;99412.81;5095137;28;20016;-65
2022/12/20 01:40:31;;;;;;;22.17;10.80;;;;;;;-0.08;71.77;99421.53;5095201;28;20439;-66
2022/12/20 01:42:56;;;;;;;25.58;11.18;;;;;;;-0.07;72.01;99415.91;5094795;28;20101;-66
2022/12/20 01:45:27;;;;;;;23.15;10.68;;;;;;;-0.09;72.03;99387.50;5076780;28;20028;-66
2022/12/20 01:47:53;;;;;;;22.70;9.73;;;;;;;-0.06;71.91;99389.78;5094655;28;20039;-66
2022/12/20 01:50:19;;;;;;;22.42;10.80;;;;;;;-0.07;71.51;99375.47;5094492;28;20036;-66
2022/12/20 01:52:46;;;;;;;24.08;12.13;;;;;;;-0.09;71.75;99388.31;5094212;28;20590;-65
2022/12/20 01:55:17;;;;;;;31.95;12.88;;;;;;;-0.10;71.48;99373.16;5076743;28;20028;-66
2022/12/20 01:57:58;;;;;;;26.33;11.85;;;;;;;-0.11;71.52;99376.91;5094951;28;20452;-66
2022/12/20 02:00:24;;;;;;;24.40;10.23;;;;;;;-0.13;71.62;99394.34;5093686;28;20023;-67
2022/12/20 02:02:50;;;;;;;24.00;10.80;;;;;;;-0.17;71.83;99383.94;5094697;28;20020;-66
2022/12/20 02:05:18;;;;;;;21.55;10.50;;;;;;;-0.18;71.59;99400.31;5095119;28;20035;-66
2022/12/20 02:07:47;;;;;;;21.83;10.82;;;;;;;-0.17;71.82;99407.38;5094933;28;20048;-67
2022/12/20 02:10:12;;;;;;;25.98;11.60;;;;;;;-0.16;71.51;99414.44;5094938;28;20103;-66
2022/12/20 02:12:43;;;;;;;24.67;10.55;;;;;;;-0.15;71.41;99418.78;5095046;28;20122;-66
2022/12/20 02:15:24;;;;;;;21.73;9.55;;;;;;;-0.15;71.85;99418.78;5094320;28;20031;-67
2022/12/20 02:18:28;;;;;;;23.70;10.85;;;;;;;-0.13;71.75;99419.41;5092159;28;20482;-66
2022/12/20 02:21:13;;;;;;;26.38;11.90;;;;;;;-0.11;71.25;99420.03;5012001;28;20042;-67
2022/12/20 02:24:07;;;;;;;21.63;9.48;;;;;;;-0.11;71.79;99411.97;5090781;28;20441;-66
2022/12/20 02:26:35;;;;;;;20.80;10.38;;;;;;;-0.12;71.68;99387.91;5090956;28;20032;-66
2022/12/20 02:29:01;;;;;;;19.27;9.18;;;;;;;-0.14;71.30;99376.50;5094646;28;20103;-66
2022/12/20 02:31:32;;;;;;;21.92;10.15;;;;;;;-0.17;71.27;99380.41;5095363;28;20127;-66
2022/12/20 02:33:58;;;;;;;19.35;9.52;;;;;;;-0.19;71.18;99379.78;5095056;28;20032;-66
2022/12/20 02:36:24;;;;;;;21.50;9.80;;;;;;;-0.19;71.64;99367.16;5094659;28;20392;-66
2022/12/20 02:38:50;;;;;;;24.02;10.65;;;;;;;-0.22;71.21;99355.94;5092505;28;20028;-66
2022/12/20 02:41:25;;;;;;;26.73;11.25;;;;;;;-0.24;71.63;99376.88;5091424;28;20055;-67
2022/12/20 02:46:44;;;;;;;21.42;10.38;;;;;;;-0.27;71.31;99375.41;5090501;28;20089;-66
2022/12/20 02:49:15;;;;;;;21.38;10.50;;;;;;;-0.30;71.48;99378.50;5073512;28;20541;-67
2022/12/20 02:51:43;;;;;;;23.50;10.35;;;;;;;-0.31;71.73;99383.09;5091792;28;20066;-66
2022/12/20 02:54:09;;;;;;;23.60;10.55;;;;;;;-0.32;71.36;99386.81;5091736;28;20059;-66
2022/12/20 02:56:40;;;;;;;27.42;12.57;;;;;;;-0.32;71.57;99369.78;5091551;28;20093;-66
2022/12/20 02:59:22;;;;;;;21.25;10.52;;;;;;;-0.33;71.76;99389.69;5091563;28;20028;-66
2022/12/20 03:01:50;;;;;;;21.55;10.25;;;;;;;-0.34;71.89;99378.09;5090183;28;20039;-67
2022/12/20 03:04:19;;;;;;;22.98;10.40;;;;;;;-0.32;71.95;99411.06;5089446;28;20042;-67
2022/12/20 03:07:07;;;;;;;22.60;10.02;;;;;;;-0.35;71.36;99395.31;5092666;28;20108;-66
2022/12/20 03:09:35;;;;;;;21.38;10.13;;;;;;;-0.31;71.85;99379.53;5090946;28;20028;-66
2022/12/20 03:12:02;;;;;;;20.95;10.20;;;;;;;-0.32;71.52;99364.41;5091262;28;20026;-66
2022/12/20 03:14:27;;;;;;;21.58;11.02;;;;;;;-0.33;71.43;99378.91;5073600;28;20066;-66
2022/12/20 03:16:52;;;;;;;21.08;10.85;;;;;;;-0.34;71.50;99353.84;5092169;28;20428;-66
2022/12/20 03:19:19;;;;;;;21.13;10.38;;;;;;;-0.35;71.51;99351.31;5091753;28;20016;-65
2022/12/20 03:21:44;;;;;;;22.02;10.63;;;;;;;-0.34;71.60;99364.63;5090845;28;20065;-67
2022/12/20 03:24:10;;;;;;;26.90;11.45;;;;;;;-0.37;71.41;99353.38;5091625;28;20012;-66
2022/12/20 03:26:36;;;;;;;25.60;11.32;;;;;;;-0.39;71.41;99348.22;5090973;28;20024;-66
2022/12/20 03:29:02;;;;;;;21.77;9.57;;;;;;;-0.39;71.29;99353.59;5092065;28;20174;-66
2022/12/20 03:31:29;;;;;;;24.00;10.55;;;;;;;-0.40;71.56;99349.25;5091651;28;20036;-66
2022/12/20 03:33:55;;;;;;;24.75;12.18;;;;;;;-0.40;71.51;99335.78;5091790;28;20031;-66
2022/12/20 03:36:22;;;;;;;21.17;10.60;;;;;;;-0.39;71.86;99340.13;5091347;28;20035;-66
2022/12/20 03:38:49;;;;;;;24.95;10.90;;;;;;;-0.40;71.68;99337.63;5091774;28;20035;-66
2022/12/20 03:41:16;;;;;;;23.60;10.20;;;;;;;-0.40;71.56;99349.25;5091858;28;20085;-66
2022/12/20 03:43:41;;;;;;;21.90;10.32;;;;;;;-0.40;71.45;99356.50;5091883;28;20024;-67
2022/12/20 03:46:07;;;;;;;22.33;10.32;;;;;;;-0.41;71.82;99352.16;5090257;28;20036;-66
2022/12/20 03:48:32;;;;;;;23.17;11.50;;;;;;;-0.40;71.90;99354.63;5091977;28;20101;-66
2022/12/20 03:50:57;;;;;;;23.35;10.45;;;;;;;-0.41;71.55;99344.88;5090281;28;20043;-66
2022/12/20 03:53:23;;;;;;;20.25;10.10;;;;;;;-0.40;71.59;99364.56;5092104;28;20031;-67
2022/12/20 03:55:48;;;;;;;25.50;11.63;;;;;;;-0.41;71.59;99363.75;5090558;28;20145;-66
2022/12/20 03:58:13;;;;;;;24.60;10.68;;;;;;;-0.39;71.87;99359.00;5090545;28;20122;-66
2022/12/20 04:00:39;;;;;;;22.83;10.63;;;;;;;-0.37;71.84;99362.31;5091305;28;20024;-67
2022/12/20 04:03:04;;;;;;;23.42;11.07;;;;;;;-0.37;71.87;99372.25;5087496;28;20031;-66
2022/12/20 04:05:29;;;;;;;22.88;10.25;;;;;;;-0.36;72.38;99360.44;5091120;28;20112;-67
2022/12/20 04:07:55;;;;;;;24.33;11.35;;;;;;;-0.34;71.81;99355.69;5090605;28;20031;-66
2022/12/20 04:10:20;;;;;;;24.40;10.50;;;;;;;-0.33;71.98;99378.91;5091564;28;20468;-66
2022/12/20 04:12:45;;;;;;;25.50;10.63;;;;;;;-0.31;71.89;99364.22;5091445;28;20036;-66
2022/12/20 04:15:11;;;;;;;26.13;11.27;;;;;;;-0.29;71.83;99364.00;5091252;28;20024;-66
2022/12/20 04:17:36;;;;;;;25.13;12.07;;;;;;;-0.27;71.87;99348.44;5089861;28;20028;-67
2022/12/20 04:20:17;;;;;;;26.63;11.75;;;;;;;-0.24;71.69;99371.50;5090910;28;20077;-66
2022/12/20 04:22:52;;;;;;;24.45;11.63;;;;;;;-0.24;71.69;99366.09;5090513;28;20102;-67
2022/12/20 04:25:19;;;;;;;25.55;11.30;;;;;;;-0.22;71.71;99364.03;5091240;28;20070;-66
2022/12/20 04:27:44;;;;;;;22.80;10.50;;;;;;;-0.23;72.18;99373.97;5090606;28;20430;-66
2022/12/20 04:30:11;;;;;;;24.83;12.65;;;;;;;-0.21;71.92;99385.38;5090920;28;20036;-67
2022/12/20 04:32:37;;;;;;;26.05;11.45;;;;;;;-0.20;71.98;99381.66;5091528;28;20027;-67
2022/12/20 04:35:03;;;;;;;25.55;11.73;;;;;;;-0.19;71.83;99379.78;5090941;28;20025;-67
2022/12/20 04:37:29;;;;;;;24.35;11.68;;;;;;;-0.19;71.83;99383.31;5090362;28;20032;-66
2022/12/20 04:39:57;;;;;;;24.92;11.38;;;;;;;-0.18;72.17;99376.06;5090632;28;20035;-67
2022/12/20 04:42:23;;;;;;;24.63;11.55;;;;;;;-0.17;71.96;99375.00;5091047;28;20024;-66
2022/12/20 04:44:48;;;;;;;25.02;11.55;;;;;;;-0.19;71.95;99377.94;5090688;28;20028;-67
2022/12/20 04:47:13;;;;;;;25.90;11.90;;;;;;;-0.18;71.82;99378.75;5085599;28;20040;-67
2022/12/20 04:49:39;;;;;;;25.10;11.25;;;;;;;-0.18;71.91;99371.50;5089486;28;20031;-66
2022/12/20 04:54:48;;;;;;;26.33;12.63;;;;;;;-0.14;72.07;99354.91;5090816;28;20042;-67
2022/12/20 04:57:13;;;;;;;26.65;11.80;;;;;;;-0.15;71.97;99367.56;5089258;28;20114;-66
2022/12/20 04:59:39;;;;;;;27.95;11.65;;;;;;;-0.15;72.00;99354.06;5085183;28;20392;-66
2022/12/20 05:02:04;;;;;;;26.00;12.35;;;;;;;-0.16;72.03;99344.31;5090134;28;20092;-67
2022/12/20 05:04:30;;;;;;;27.30;11.63;;;;;;;-0.18;71.99;99333.75;5089604;28;20036;-66
2022/12/20 05:06:55;;;;;;;22.38;11.60;;;;;;;-0.16;71.64;99339.78;5090543;28;20024;-67
2022/12/20 05:09:21;;;;;;;27.00;12.23;;;;;;;-0.18;72.04;99339.16;5090357;28;20066;-66
2022/12/20 05:11:46;;;;;;;31.88;14.10;;;;;;;-0.18;72.20;99339.16;5090414;28;20027;-67
2022/12/20 05:14:12;;;;;;;25.75;12.05;;;;;;;-0.17;72.11;99339.97;5089726;28;20468;-66
2022/12/20 05:16:37;;;;;;;24.95;12.13;;;;;;;-0.17;72.36;99351.59;5090448;28;20043;-66
2022/12/20 05:19:03;;;;;;;27.38;12.05;;;;;;;-0.17;71.95;99357.00;5090455;28;20077;-67
2022/12/20 05:26:57;;;;;;;28.42;13.57;;;;;;;-0.18;71.93;99352.63;5090299;28;20090;-67
2022/12/20 05:29:22;;;;;;;28.88;13.38;;;;;;;-0.20;72.22;99346.59;5090066;28;20028;-67
2022/12/20 05:31:48;;;;;;;26.08;12.10;;;;;;;-0.22;71.85;99354.06;5090231;28;20103;-67
2022/12/20 05:34:13;;;;;;;26.75;12.93;;;;;;;-0.21;72.30;99341.44;5089987;28;20434;-67
2022/12/20 05:36:38;;;;;;;24.17;11.68;;;;;;;-0.22;72.19;99340.59;5085970;28;20368;-67
2022/12/20 05:39:04;;;;;;;29.83;12.50;;;;;;;-0.24;72.13;99341.84;5090519;28;20032;-67
2022/12/20 05:41:31;;;;;;;28.90;12.55;;;;;;;-0.25;72.57;99324.00;5089072;28;20020;-67
2022/12/20 05:43:56;;;;;;;27.98;12.57;;;;;;;-0.26;72.05;99314.25;5089481;28;20059;-67
2022/12/20 05:46:22;;;;;;;27.00;13.25;;;;;;;-0.26;72.33;99311.56;5086076;28;20028;-67
2022/12/20 05:48:47;;;;;;;28.25;12.05;;;;;;;-0.26;72.35;99316.94;5089801;28;20031;-67
2022/12/20 05:51:12;;;;;;;27.05;13.57;;;;;;;-0.26;72.65;99298.06;5087696;28;20373;-66
2022/12/20 05:53:38;;;;;;;29.50;13.70;;;;;;;-0.27;72.19;99304.50;5088381;28;20115;-66
2022/12/20 05:56:04;;;;;;;32.03;14.38;;;;;;;-0.28;72.42;99300.97;5087986;28;20024;-67
2022/12/20 05:58:30;;;;;;;30.65;15.35;;;;;;;-0.27;72.27;99296.41;5087660;28;20024;-66
2022/12/20 06:00:55;;;;;;;28.45;13.35;;;;;;;-0.27;72.29;99294.53;5088518;28;20024;-66
2022/12/20 06:03:21;;;;;;;31.55;14.05;;;;;;;-0.26;72.68;99290.81;5088020;28;20040;-66
2022/12/20 06:05:46;;;;;;;27.08;12.30;;;;;;;-0.25;72.71;99297.84;5084319;28;20035;-66
2022/12/20 06:08:12;;;;;;;32.35;14.60;;;;;;;-0.25;72.44;99305.94;5088115;28;20044;-66
2022/12/20 06:10:39;;;;;;;39.65;16.73;;;;;;;-0.24;72.23;99301.41;5089650;28;20028;-66
2022/12/20 06:13:05;;;;;;;45.15;17.40;;;;;;;-0.23;72.65;99317.34;5068467;28;20381;-66
2022/12/20 06:15:31;;;;;;;52.28;19.30;;;;;;;-0.24;72.20;99325.66;5092398;28;20027;-66
2022/12/20 06:17:56;;;;;;;38.30;16.00;;;;;;;-0.25;72.48;99322.13;5093691;28;20031;-66
2022/12/20 06:20:22;;;;;;;68.07;21.13;;;;;;;-0.27;72.44;99326.06;5093538;28;20028;-66
2022/12/20 06:22:47;;;;;;;43.53;16.98;;;;;;;-0.26;72.52;99325.03;5093683;28;20491;-66
2022/12/20 06:25:14;;;;;;;57.60;18.80;;;;;;;-0.28;72.52;99324.41;5090601;28;20066;-66
2022/12/20 06:27:40;;;;;;;72.40;21.98;;;;;;;-0.29;72.28;99328.94;5091891;28;20070;-67
2022/12/20 06:30:06;;;;;;;39.97;17.20;;;;;;;-0.28;72.76;99330.63;5092808;28;20107;-67
2022/12/20 06:32:32;;;;;;;49.65;19.85;;;;;;;-0.30;72.58;99324.59;5091773;28;20502;-66
2022/12/20 06:34:57;;;;;;;53.30;19.65;;;;;;;-0.30;72.60;99321.91;5092946;28;20028;-67
2022/12/20 06:37:23;;;;;;;40.15;18.70;;;;;;;-0.29;72.87;99318.16;5093344;28;20432;-66
2022/12/20 06:39:48;;;;;;;38.72;16.83;;;;;;;-0.31;72.41;99329.16;5091323;28;20032;-66
2022/12/20 06:42:14;;;;;;;38.75;17.02;;;;;;;-0.28;72.68;99324.41;5093254;28;20443;-66
2022/12/20 06:44:39;;;;;;;33.55;15.38;;;;;;;-0.27;72.65;99315.28;5092090;28;20016;-66
2022/12/20 06:47:04;;;;;;;32.17;15.68;;;;;;;-0.27;72.59;99317.97;5092659;28;20575;-66
2022/12/20 06:49:30;;;;;;;27.65;14.02;;;;;;;-0.28;72.62;99309.03;5088729;28;20110;-66
2022/12/20 06:51:55;;;;;;;31.30;14.05;;;;;;;-0.26;72.81;99320.47;5086101;28;20362;-66
2022/12/20 06:54:21;;;;;;;30.42;14.07;;;;;;;-0.24;72.57;99312.19;5092935;28;20028;-65
2022/12/20 06:56:46;;;;;;;31.40;14.07;;;;;;;-0.24;72.42;99296.81;5092527;28;20114;-66
2022/12/20 06:59:11;;;;;;;32.47;13.90;;;;;;;-0.24;72.53;99304.91;5092069;28;20062;-66
2022/12/20 07:01:37;;;;;;;25.75;13.57;;;;;;;-0.23;72.37;99313.84;5089254;28;20032;-66
2022/12/20 07:04:02;;;;;;;24.83;11.90;;;;;;;-0.21;72.39;99317.16;5089502;28;20039;-66
2022/12/20 07:06:28;;;;;;;28.52;12.82;;;;;;;-0.18;72.76;99320.28;5092124;28;20032;-66
2022/12/20 07:08:54;;;;;;;28.80;13.63;;;;;;;-0.17;72.62;99313.84;5074450;28;20396;-66
2022/12/20 07:11:19;;;;;;;28.15;13.32;;;;;;;-0.13;72.54;99314.25;5092135;28;20028;-66
2022/12/20 07:13:45;;;;;;;31.50;13.93;;;;;;;-0.11;72.55;99314.88;5092415;28;20056;-66
2022/12/20 07:16:10;;;;;;;31.30;14.38;;;;;;;-0.08;72.32;99303.69;5092150;28;20430;-66
2022/12/20 07:18:36;;;;;;;28.83;12.98;;;;;;;-0.07;72.79;99310.75;5092085;28;20031;-66
2022/12/20 07:21:04;;;;;;;30.05;13.07;;;;;;;-0.02;72.31;99307.44;5091968;28;20107;-65
2022/12/20 07:23:30;;;;;;;31.52;14.05;;;;;;;0.01;72.14;99316.97;5092153;28;20028;-66
2022/12/20 07:25:57;;;;;;;31.50;13.60;;;;;;;0.02;72.77;99310.56;5092170;28;20115;-66
2022/12/20 07:28:24;;;;;;;28.23;12.65;;;;;;;0.04;72.78;99308.47;5092152;28;20057;-66
2022/12/20 07:30:50;;;;;;;30.55;12.77;;;;;;;0.05;72.31;99304.75;5090607;28;20056;-66
2022/12/20 07:33:15;;;;;;;27.98;13.50;;;;;;;0.08;72.22;99313.25;5090742;28;20072;-66
2022/12/20 07:35:42;;;;;;;31.05;13.70;;;;;;;0.10;72.01;99303.06;5090565;28;20407;-66
2022/12/20 07:38:09;;;;;;;28.35;13.27;;;;;;;0.13;72.01;99299.16;5090945;28;20039;-66
2022/12/20 07:40:34;;;;;;;36.65;16.95;;;;;;;0.16;72.10;99300.59;5090524;28;20026;-66
2022/12/20 07:43:00;;;;;;;30.23;14.02;;;;;;;0.17;71.94;99286.91;5090478;28;20426;-66
2022/12/20 07:45:25;;;;;;;28.77;13.05;;;;;;;0.18;72.14;99291.28;5090313;28;20028;-66
2022/12/20 07:47:50;;;;;;;30.20;13.50;;;;;;;0.20;72.20;99291.06;5091158;28;20031;-66
2022/12/20 07:50:16;;;;;;;30.92;14.27;;;;;;;0.22;72.06;99289.78;5089939;28;20036;-66
2022/12/20 07:52:45;;;;;;;32.65;14.18;;;;;;;0.22;72.17;99295.19;5072066;28;20032;-66
2022/12/20 07:55:12;;;;;;;30.83;13.93;;;;;;;0.26;72.25;99301.81;5090348;28;20532;-66
2022/12/20 07:57:43;;;;;;;30.25;13.63;;;;;;;0.28;72.07;99296.25;5072029;28;20028;-66
2022/12/20 08:00:09;;;;;;;28.17;13.57;;;;;;;0.31;71.92;99297.69;5088027;28;20036;-66
2022/12/20 08:02:47;;;;;;;28.42;12.23;;;;;;;0.33;71.86;99280.25;5091227;28;20033;-66
2022/12/20 08:05:15;;;;;;;27.38;14.02;;;;;;;0.36;71.79;99279.00;5091584;28;20043;-66
2022/12/20 08:07:42;;;;;;;29.52;14.00;;;;;;;0.39;71.49;99281.28;5073152;28;20055;-67
2022/12/20 08:10:10;;;;;;;29.67;13.27;;;;;;;0.42;71.91;99289.78;5091431;28;20070;-67
2022/12/20 08:12:37;;;;;;;28.50;12.80;;;;;;;0.45;71.24;99280.44;5091294;28;20050;-67
2022/12/20 08:15:06;;;;;;;28.55;12.65;;;;;;;0.48;71.48;99295.38;5071401;28;20061;-67
2022/12/20 08:17:31;;;;;;;27.40;12.77;;;;;;;0.51;71.19;99294.97;5091015;28;20026;-66
2022/12/20 08:19:59;;;;;;;28.48;12.38;;;;;;;0.55;70.93;99293.50;5086006;28;20031;-67
2022/12/20 08:22:26;;;;;;;27.20;13.07;;;;;;;0.60;71.09;99304.50;5086246;28;20047;-66
2022/12/20 08:24:51;;;;;;;30.63;13.23;;;;;;;0.65;70.83;99290.38;5089143;28;20119;-67
2022/12/20 08:27:16;;;;;;;27.38;12.48;;;;;;;0.69;71.28;99287.06;5089816;28;20119;-67
2022/12/20 08:29:42;;;;;;;26.05;12.70;;;;;;;0.73;70.85;99269.41;5087119;28;20024;-67
2022/12/20 08:32:07;;;;;;;28.20;13.77;;;;;;;0.77;70.68;99279.78;5087538;28;20020;-66
2022/12/20 08:34:33;;;;;;;26.83;13.00;;;;;;;0.77;70.84;99288.69;5090369;28;20376;-66
2022/12/20 08:36:58;;;;;;;28.95;12.88;;;;;;;0.81;70.86;99289.13;5089144;28;20035;-66
2022/12/20 08:39:24;;;;;;;28.20;12.95;;;;;;;0.83;70.26;99282.44;5089081;28;20064;-66
2022/12/20 08:41:49;;;;;;;28.00;13.07;;;;;;;0.84;70.18;99294.91;5089037;28;20027;-65
2022/12/20 08:44:14;;;;;;;26.98;12.23;;;;;;;0.87;70.24;99283.69;5089002;28;20036;-65
2022/12/20 08:46:40;;;;;;;24.95;11.88;;;;;;;0.89;70.73;99296.97;5089674;28;20028;-66
2022/12/20 08:49:05;;;;;;;29.13;13.23;;;;;;;0.92;70.33;99306.53;5090683;28;20099;-66
2022/12/20 08:51:31;;;;;;;26.50;11.55;;;;;;;0.93;70.04;99305.50;5089517;28;20028;-66
2022/12/20 08:53:56;;;;;;;26.55;12.65;;;;;;;0.94;70.62;99301.75;5071785;28;20024;-66
2022/12/20 08:56:22;;;;;;;29.13;13.18;;;;;;;0.95;69.95;99298.81;5088732;28;20089;-67
2022/12/20 08:58:48;;;;;;;28.02;13.18;;;;;;;0.97;70.29;99304.84;5087953;28;20416;-66
2022/12/20 09:01:16;;;;;;;28.17;12.43;;;;;;;0.98;70.44;99302.97;5070419;28;20056;-66
2022/12/20 09:03:43;;;;;;;28.65;13.40;;;;;;;1.02;69.94;99296.94;5088937;28;20102;-66
2022/12/20 09:06:13;;;;;;;29.58;13.88;;;;;;;1.04;70.16;99286.75;5087629;28;20012;-66
2022/12/20 09:08:39;;;;;;;26.35;12.23;;;;;;;1.05;69.62;99287.56;5088604;28;20028;-66
2022/12/20 09:11:08;;;;;;;30.83;13.57;;;;;;;1.07;69.68;99288.19;5087548;28;20048;-66
2022/12/20 09:13:34;;;;;;;33.15;14.95;;;;;;;1.06;69.39;99312.72;5088330;28;20016;-66
2022/12/20 09:16:01;;;;;;;27.05;13.27;;;;;;;1.07;69.24;99315.19;5085981;28;20365;-65
2022/12/20 09:18:26;;;;;;;28.00;13.82;;;;;;;1.08;69.75;99297.13;5086702;28;20654;-66
2022/12/20 09:20:51;;;;;;;24.73;11.57;;;;;;;1.10;69.63;99298.56;5087567;28;20123;-66
2022/12/20 09:23:17;;;;;;;28.83;13.57;;;;;;;1.15;69.28;99296.03;5087124;28;20031;-66
2022/12/20 09:25:42;;;;;;;26.65;12.20;;;;;;;1.16;69.10;99289.59;5086396;28;20027;-66
2022/12/20 09:28:08;;;;;;;30.15;12.23;;;;;;;1.19;68.69;99297.28;5086617;28;20059;-66
2022/12/20 09:30:33;;;;;;;25.30;13.35;;;;;;;1.24;68.93;99282.31;5086791;28;20694;-66
2022/12/20 09:32:58;;;;;;;30.92;13.27;;;;;;;1.30;68.42;99276.84;5088518;28;20046;-67
2022/12/20 09:35:24;;;;;;;29.50;15.10;;;;;;;1.34;69.34;99266.47;5087742;28;20082;-65
2022/12/20 09:37:49;;;;;;;31.27;15.65;;;;;;;1.42;68.98;99251.84;5088955;28;20075;-65
2022/12/20 09:40:20;;;;;;;32.53;15.75;;;;;;;1.49;69.01;99245.34;5088595;28;20043;-65
2022/12/20 09:42:47;;;;;;;29.45;15.43;;;;;;;1.56;68.58;99248.03;5088832;28;20024;-66
2022/12/20 09:45:23;;;;;;;30.88;15.85;;;;;;;1.58;68.65;99227.03;5088868;28;20043;-65
2022/12/20 09:47:49;;;;;;;35.33;15.65;;;;;;;1.62;67.73;99243.63;5088444;28;20043;-65
2022/12/20 09:50:18;;;;;;;27.05;13.98;;;;;;;1.66;68.86;99258.38;5091881;28;20476;-65
2022/12/20 09:52:54;;;;;;;29.48;13.65;;;;;;;1.70;68.58;99254.19;5092721;28;20020;-67
2022/12/20 09:55:42;;;;;;;23.90;11.25;;;;;;;1.71;67.73;99263.94;5091665;28;20025;-66
2022/12/20 09:58:07;;;;;;;25.58;11.98;;;;;;;1.72;67.69;99264.75;5091765;28;20036;-65
2022/12/20 10:00:43;;;;;;;23.83;11.38;;;;;;;1.68;68.02;99263.53;5094166;28;20044;-66
2022/12/20 10:03:30;;;;;;;24.70;11.63;;;;;;;1.67;67.65;99270.84;5075780;28;20562;-66
2022/12/20 10:06:23;;;;;;;25.63;12.20;;;;;;;1.66;67.59;99257.53;5093341;28;20110;-66
2022/12/20 10:08:51;;;;;;;22.50;11.38;;;;;;;1.64;67.64;99241.53;5050694;28;20044;-67
2022/12/20 10:11:23;;;;;;;24.25;11.15;;;;;;;1.66;67.66;99249.41;5090902;28;20042;-67
2022/12/20 10:14:23;;;;;;;27.10;12.13;;;;;;;1.63;67.56;99240.69;5094457;28;20111;-67
2022/12/20 10:17:20;;;;;;;26.02;12.88;;;;;;;1.65;67.44;99235.06;5094086;28;20044;-66
2022/12/20 10:19:59;;;;;;;21.10;11.50;;;;;;;1.63;67.17;99224.47;5078286;28;20050;-66
2022/12/20 10:22:32;;;;;;;23.92;11.82;;;;;;;1.61;66.93;99217.63;5093747;28;20040;-66
2022/12/20 10:25:11;;;;;;;27.83;13.73;;;;;;;1.57;66.81;99217.25;5093673;28;20051;-66
2022/12/20 10:27:40;;;;;;;29.75;12.70;;;;;;;1.56;67.02;99221.00;5094325;28;20401;-67
2022/12/20 10:30:13;;;;;;;26.70;12.30;;;;;;;1.57;67.58;99228.06;5094221;28;20020;-67
2022/12/20 10:32:40;;;;;;;27.52;12.32;;;;;;;1.58;66.71;99215.34;5094164;28;20020;-67
2022/12/20 10:35:08;;;;;;;27.55;13.02;;;;;;;1.58;67.62;99193.72;5093717;28;20388;-67
2022/12/20 10:37:34;;;;;;;24.08;12.35;;;;;;;1.59;67.03;99190.81;5094047;28;20036;-67
2022/12/20 10:39:59;;;;;;;26.27;12.18;;;;;;;1.60;67.59;99180.81;5094016;28;20397;-67
2022/12/20 10:42:24;;;;;;;25.02;12.27;;;;;;;1.61;66.76;99190.59;5094116;28;20027;-66
2022/12/20 10:44:50;;;;;;;26.98;12.95;;;;;;;1.63;67.14;99188.50;5094072;28;20479;-66
2022/12/20 10:47:40;;;;;;;26.02;13.07;;;;;;;1.61;67.07;99182.47;5094314;28;20028;-66
2022/12/20 10:50:16;;;;;;;24.33;12.73;;;;;;;1.61;67.10;99187.88;5081096;28;20481;-67
2022/12/20 10:52:42;;;;;;;27.30;13.30;;;;;;;1.60;67.12;99187.06;5094039;28;20051;-67
2022/12/20 10:55:35;;;;;;;27.00;13.13;;;;;;;1.58;67.34;99193.72;5093728;28;20028;-66
2022/12/20 10:58:10;;;;;;;27.83;13.10;;;;;;;1.58;66.69;99164.00;5093974;28;20032;-66
2022/12/20 11:00:36;;;;;;;28.45;13.52;;;;;;;1.55;67.13;99156.31;5093150;28;20016;-65
2022/12/20 11:03:17;;;;;;;25.40;12.90;;;;;;;1.52;67.45;99154.03;5093705;28;20767;-65
2022/12/20 11:06:16;;;;;;;28.48;13.80;;;;;;;1.48;67.81;99137.44;5093628;28;20055;-67
2022/12/20 11:08:41;;;;;;;42.25;21.65;;;;;;;1.47;67.41;99138.50;5038674;28;20035;-68
2022/12/20 11:11:12;;;;;;;53.60;23.75;;;;;;;1.48;66.68;99127.44;5093333;28;20039;-67
2022/12/20 11:13:38;;;;;;;39.28;16.73;;;;;;;1.47;67.42;99131.19;5093548;28;20096;-66
2022/12/20 11:16:04;;;;;;;37.58;18.15;;;;;;;1.49;67.29;99128.28;5093152;28;20024;-67
2022/12/20 11:19:09;;;;;;;32.78;15.48;;;;;;;1.51;67.24;99117.25;5093589;28;20031;-66
2022/12/20 11:21:44;;;;;;;34.35;16.83;;;;;;;1.56;67.42;99129.06;5093168;28;20039;-67
2022/12/20 11:24:21;;;;;;;30.38;14.35;;;;;;;1.59;67.20;99128.63;5092896;28;20024;-67
2022/12/20 11:26:47;;;;;;;28.88;13.98;;;;;;;1.62;67.49;99127.34;5092987;28;20051;-67
2022/12/20 11:29:24;;;;;;;30.60;14.60;;;;;;;1.67;66.86;99135.63;5093102;28;20055;-65
2022/12/20 11:32:15;;;;;;;30.73;15.38;;;;;;;1.74;66.84;99128.28;5092965;28;20024;-66
2022/12/20 11:35:12;;;;;;;29.70;14.60;;;;;;;1.78;66.74;99123.25;5091429;28;20099;-66
2022/12/20 11:38:07;;;;;;;30.55;13.98;;;;;;;1.83;66.95;99133.44;5091740;28;20050;-66
2022/12/20 11:40:39;;;;;;;28.40;14.73;;;;;;;1.94;67.52;99135.38;5092833;28;20031;-66